Hauptseite
METAR-TAF:

METAR-TAF

Flughäfen :

Grantley Adams International Airport

Bridgetown, Barbados

Breite: 13-04N, Länge: 059-29W, Höhe: 50 m

Beobachtung

Neuester Wetterbericht von vor 38 Minuten, um 22:00 UTC
Wind 14 kt aus Ost
Temperatur 28°C
Luftfeuchtigkeit 74%
Luftdruck 1011 hPa
Sichtweite 10 km oder mehr
Leicht bewölkt in der Höhe von 2000 ft

METAR: TBPB 152200Z 09014KT 9999 FEW020 28/23 Q1011 NOSIG

Zeit: 18:38 (22:38 UTC)

Prognose

Neuester Wetterbericht von vor 5 Stunden und 38 Minuten, um 17:00 UTC
Gültige Prognose vom 15 um 18 UTC bis 16 um 18 UTC
Wind 19 kt aus Ost
Sichtweite 10 km oder mehr
Aufgelockert bewölkt in der Höhe von 2000 ft

TAF: TBPB 151700Z 1518/1618 10019KT 9999 SCT020

Wetterbeobachtungen und Prognosen von mehr als 4000 Flughäfen (METAR und TAF Bericht).

Die verfügbaren Stationen werden durch gelbe und rote Markierungen auf der Karte dargestellt.

Führen Sie die Maus auf sie, um den Namen der Station zu sehen.

Darauf klicken, um die Beobachtung von Wetterbeobachtungen und Prognosen zu sehen.

Um die Karte zu ändern : klicken Sie auf den grünen Tasten mit einem schwarzen Kreuz Zum Vergrößern, auf den grünen Button mit einem Gedankenstrich zu verkleinern, oder auf die grünen Pfeile für benachbarte Karten.


METAR-TAF: